sensor_id;sensor_type;location;lat;lon;timestamp;pressure;altitude;pressure_sealevel;temperature;humidity
71601;BME280;59446;52.192;4.628;2023-01-31T00:01:16;102505.25;;;16.70;49.75
71601;BME280;59446;52.192;4.628;2023-01-31T00:03:42;102507.97;;;16.66;49.45
71601;BME280;59446;52.192;4.628;2023-01-31T00:06:37;102504.53;;;16.64;49.83
71601;BME280;59446;52.192;4.628;2023-01-31T00:09:04;102500.19;;;16.63;50.03
71601;BME280;59446;52.192;4.628;2023-01-31T00:11:31;102501.00;;;16.65;49.46
71601;BME280;59446;52.192;4.628;2023-01-31T00:13:58;102494.00;;;16.64;49.54
71601;BME280;59446;52.192;4.628;2023-01-31T00:16:23;102488.84;;;16.60;49.40
71601;BME280;59446;52.192;4.628;2023-01-31T00:18:50;102488.03;;;16.58;49.59
71601;BME280;59446;52.192;4.628;2023-01-31T00:21:17;102484.59;;;16.56;50.02
71601;BME280;59446;52.192;4.628;2023-01-31T00:23:45;102472.28;;;16.56;50.08
71601;BME280;59446;52.192;4.628;2023-01-31T00:26:15;102469.66;;;16.56;49.53
71601;BME280;59446;52.192;4.628;2023-01-31T00:28:43;102472.28;;;16.56;49.48
71601;BME280;59446;52.192;4.628;2023-01-31T00:31:10;102462.69;;;16.54;50.05
71601;BME280;59446;52.192;4.628;2023-01-31T00:33:36;102457.38;;;16.55;49.61
71601;BME280;59446;52.192;4.628;2023-01-31T00:36:03;102456.63;;;16.52;49.69
71601;BME280;59446;52.192;4.628;2023-01-31T00:38:29;102456.66;;;16.50;49.80
71601;BME280;59446;52.192;4.628;2023-01-31T00:40:55;102434.72;;;16.51;50.00
71601;BME280;59446;52.192;4.628;2023-01-31T00:43:20;102424.28;;;16.48;49.78
71601;BME280;59446;52.192;4.628;2023-01-31T00:45:46;102427.00;;;16.45;49.68
71601;BME280;59446;52.192;4.628;2023-01-31T00:48:11;102412.94;;;16.46;49.76
71601;BME280;59446;52.192;4.628;2023-01-31T00:50:37;102406.91;;;16.43;50.16
71601;BME280;59446;52.192;4.628;2023-01-31T00:53:02;102406.91;;;16.43;49.80
71601;BME280;59446;52.192;4.628;2023-01-31T00:55:28;102397.25;;;16.43;49.70
71601;BME280;59446;52.192;4.628;2023-01-31T00:57:53;102405.06;;;16.46;50.04
71601;BME280;59446;52.192;4.628;2023-01-31T01:00:19;102402.53;;;16.43;50.22
71601;BME280;59446;52.192;4.628;2023-01-31T01:02:44;102397.41;;;16.39;49.94
71601;BME280;59446;52.192;4.628;2023-01-31T01:05:10;102392.06;;;16.42;49.56
71601;BME280;59446;52.192;4.628;2023-01-31T01:07:35;102399.09;;;16.41;49.46
71601;BME280;59446;52.192;4.628;2023-01-31T01:10:01;102395.59;;;16.41;49.99
71601;BME280;59446;52.192;4.628;2023-01-31T01:12:26;102398.25;;;16.39;49.57
71601;BME280;59446;52.192;4.628;2023-01-31T01:14:51;102392.00;;;16.43;49.51
71601;BME280;59446;52.192;4.628;2023-01-31T01:17:17;102390.34;;;16.41;49.70
71601;BME280;59446;52.192;4.628;2023-01-31T01:19:42;102383.53;;;16.33;49.48
71601;BME280;59446;52.192;4.628;2023-01-31T01:22:07;102382.72;;;16.30;50.17
71601;BME280;59446;52.192;4.628;2023-01-31T01:24:33;102380.91;;;16.32;49.71
71601;BME280;59446;52.192;4.628;2023-01-31T01:26:58;102377.41;;;16.31;50.17
71601;BME280;59446;52.192;4.628;2023-01-31T01:29:24;102387.03;;;16.32;50.28
71601;BME280;59446;52.192;4.628;2023-01-31T01:31:49;102389.69;;;16.31;49.79
71601;BME280;59446;52.192;4.628;2023-01-31T01:34:15;102395.91;;;16.28;50.10
71601;BME280;59446;52.192;4.628;2023-01-31T01:36:42;102405.53;;;16.29;49.63
71601;BME280;59446;52.192;4.628;2023-01-31T01:39:10;102402.13;;;16.26;49.74
71601;BME280;59446;52.192;4.628;2023-01-31T01:41:37;102406.50;;;16.25;49.92
71601;BME280;59446;52.192;4.628;2023-01-31T01:49:45;102416.25;;;16.22;49.88
71601;BME280;59446;52.192;4.628;2023-01-31T01:52:13;102418.84;;;16.23;49.24
71601;BME280;59446;52.192;4.628;2023-01-31T01:54:54;102409.28;;;16.21;49.87
71601;BME280;59446;52.192;4.628;2023-01-31T01:57:25;102412.72;;;16.23;50.13
71601;BME280;59446;52.192;4.628;2023-01-31T02:00:07;102410.19;;;16.20;49.59
71601;BME280;59446;52.192;4.628;2023-01-31T02:02:34;102406.66;;;16.21;49.92
71601;BME280;59446;52.192;4.628;2023-01-31T02:04:59;102407.53;;;16.20;49.64
71601;BME280;59446;52.192;4.628;2023-01-31T02:07:25;102416.22;;;16.23;49.94
71601;BME280;59446;52.192;4.628;2023-01-31T02:09:59;102409.19;;;16.24;49.71
71601;BME280;59446;52.192;4.628;2023-01-31T02:12:26;102415.38;;;16.21;49.57
71601;BME280;59446;52.192;4.628;2023-01-31T02:14:52;102419.78;;;16.21;49.40
71601;BME280;59446;52.192;4.628;2023-01-31T02:17:18;102418.16;;;16.17;49.58
71601;BME280;59446;52.192;4.628;2023-01-31T02:19:50;102411.97;;;16.18;49.70
71601;BME280;59446;52.192;4.628;2023-01-31T02:34:03;102402.56;;;16.11;50.05
71601;BME280;59446;52.192;4.628;2023-01-31T02:39:28;102390.22;;;16.13;49.61
71601;BME280;59446;52.192;4.628;2023-01-31T02:41:56;102392.03;;;16.11;49.89
71601;BME280;59446;52.192;4.628;2023-01-31T02:44:31;102388.66;;;16.05;49.80
71601;BME280;59446;52.192;4.628;2023-01-31T02:52:57;102370.16;;;16.09;49.35
71601;BME280;59446;52.192;4.628;2023-01-31T02:55:35;102387.78;;;16.05;50.01
71601;BME280;59446;52.192;4.628;2023-01-31T02:58:21;102384.28;;;16.04;49.71
71601;BME280;59446;52.192;4.628;2023-01-31T03:00:49;102381.66;;;16.04;50.00
71601;BME280;59446;52.192;4.628;2023-01-31T03:03:23;102382.66;;;16.00;50.03
71601;BME280;59446;52.192;4.628;2023-01-31T03:06:37;102378.31;;;15.99;49.66
71601;BME280;59446;52.192;4.628;2023-01-31T03:09:03;102377.31;;;16.03;49.97
71601;BME280;59446;52.192;4.628;2023-01-31T03:14:30;102381.78;;;16.00;50.05
71601;BME280;59446;52.192;4.628;2023-01-31T03:17:46;102372.19;;;15.99;50.14
71601;BME280;59446;52.192;4.628;2023-01-31T03:20:21;102379.13;;;16.01;49.74
71601;BME280;59446;52.192;4.628;2023-01-31T03:22:53;102362.53;;;15.99;49.79
71601;BME280;59446;52.192;4.628;2023-01-31T03:25:22;102358.19;;;15.98;49.81
71601;BME280;59446;52.192;4.628;2023-01-31T03:27:59;102351.31;;;15.94;49.83
71601;BME280;59446;52.192;4.628;2023-01-31T03:30:36;102357.47;;;15.93;50.19
71601;BME280;59446;52.192;4.628;2023-01-31T03:33:16;102365.34;;;15.93;50.01
71601;BME280;59446;52.192;4.628;2023-01-31T03:35:47;102365.38;;;15.92;49.61
71601;BME280;59446;52.192;4.628;2023-01-31T03:38:21;102352.28;;;15.90;49.49
71601;BME280;59446;52.192;4.628;2023-01-31T03:40:55;102353.16;;;15.91;50.12
71601;BME280;59446;52.192;4.628;2023-01-31T03:43:32;102330.28;;;15.94;49.98
71601;BME280;59446;52.192;4.628;2023-01-31T03:46:07;102334.81;;;15.89;50.11
71601;BME280;59446;52.192;4.628;2023-01-31T03:48:42;102332.19;;;15.89;49.57
71601;BME280;59446;52.192;4.628;2023-01-31T03:51:17;102326.06;;;15.87;49.68
71601;BME280;59446;52.192;4.628;2023-01-31T03:54:08;102331.31;;;15.87;49.57
71601;BME280;59446;52.192;4.628;2023-01-31T03:56:55;102319.19;;;15.83;50.33
71601;BME280;59446;52.192;4.628;2023-01-31T03:59:28;102325.28;;;15.84;49.61
71601;BME280;59446;52.192;4.628;2023-01-31T04:01:58;102320.94;;;15.83;49.92
71601;BME280;59446;52.192;4.628;2023-01-31T04:04:29;102319.19;;;15.83;49.52
71601;BME280;59446;52.192;4.628;2023-01-31T04:06:57;102315.72;;;15.81;49.62
71601;BME280;59446;52.192;4.628;2023-01-31T04:09:23;102327.09;;;15.82;50.03
71601;BME280;59446;52.192;4.628;2023-01-31T04:11:49;102311.34;;;15.82;49.77
71601;BME280;59446;52.192;4.628;2023-01-31T04:14:15;102308.75;;;15.80;49.75
71601;BME280;59446;52.192;4.628;2023-01-31T04:16:41;102312.22;;;15.82;49.68
71601;BME280;59446;52.192;4.628;2023-01-31T04:19:06;102319.22;;;15.82;49.46
71601;BME280;59446;52.192;4.628;2023-01-31T04:21:32;102315.72;;;15.81;49.88
71601;BME280;59446;52.192;4.628;2023-01-31T04:23:57;102311.44;;;15.79;49.74
71601;BME280;59446;52.192;4.628;2023-01-31T04:26:22;102301.88;;;15.76;49.54
71601;BME280;59446;52.192;4.628;2023-01-31T04:28:49;102296.53;;;15.79;49.64
71601;BME280;59446;52.192;4.628;2023-01-31T04:31:14;102305.41;;;15.75;50.02
71601;BME280;59446;52.192;4.628;2023-01-31T04:33:40;102304.53;;;15.74;50.00
71601;BME280;59446;52.192;4.628;2023-01-31T04:36:06;102303.72;;;15.72;49.76
71601;BME280;59446;52.192;4.628;2023-01-31T04:38:31;102301.09;;;15.72;50.04
71601;BME280;59446;52.192;4.628;2023-01-31T04:40:57;102296.72;;;15.73;50.14
71601;BME280;59446;52.192;4.628;2023-01-31T04:43:22;102287.16;;;15.70;49.47
71601;BME280;59446;52.192;4.628;2023-01-31T04:45:48;102290.72;;;15.68;50.08
71601;BME280;59446;52.192;4.628;2023-01-31T04:48:13;102284.56;;;15.69;49.89
71601;BME280;59446;52.192;4.628;2023-01-31T04:50:38;102287.19;;;15.69;49.98
71601;BME280;59446;52.192;4.628;2023-01-31T04:53:04;102281.03;;;15.70;49.52
71601;BME280;59446;52.192;4.628;2023-01-31T04:55:30;102282.84;;;15.68;50.22
71601;BME280;59446;52.192;4.628;2023-01-31T04:57:55;102280.22;;;15.68;50.14
71601;BME280;59446;52.192;4.628;2023-01-31T05:00:21;102274.16;;;15.63;49.62
71601;BME280;59446;52.192;4.628;2023-01-31T05:02:47;102276.78;;;15.63;50.22
71601;BME280;59446;52.192;4.628;2023-01-31T05:05:14;102266.22;;;15.66;49.85
71601;BME280;59446;52.192;4.628;2023-01-31T05:07:39;102274.97;;;15.65;50.00
71601;BME280;59446;52.192;4.628;2023-01-31T05:10:05;102273.25;;;15.64;49.52
71601;BME280;59446;52.192;4.628;2023-01-31T05:12:31;102265.47;;;15.61;49.93
71601;BME280;59446;52.192;4.628;2023-01-31T05:14:56;102258.38;;;15.64;49.60
71601;BME280;59446;52.192;4.628;2023-01-31T05:17:22;102256.69;;;15.62;49.54
71601;BME280;59446;52.192;4.628;2023-01-31T05:19:56;102266.34;;;15.61;50.11
71601;BME280;59446;52.192;4.628;2023-01-31T05:22:23;102273.31;;;15.62;49.89
71601;BME280;59446;52.192;4.628;2023-01-31T05:24:49;102274.34;;;15.57;50.15
71601;BME280;59446;52.192;4.628;2023-01-31T05:27:15;102272.47;;;15.60;50.13
71601;BME280;59446;52.192;4.628;2023-01-31T05:29:40;102261.13;;;15.60;49.91
71601;BME280;59446;52.192;4.628;2023-01-31T05:32:06;102262.13;;;15.56;49.53
71601;BME280;59446;52.192;4.628;2023-01-31T05:34:32;102262.13;;;15.56;50.02
71601;BME280;59446;52.192;4.628;2023-01-31T05:36:59;102263.84;;;15.57;49.53
71601;BME280;59446;52.192;4.628;2023-01-31T05:39:25;102265.56;;;15.58;50.24
71601;BME280;59446;52.192;4.628;2023-01-31T05:41:50;102265.63;;;15.55;49.99
71601;BME280;59446;52.192;4.628;2023-01-31T05:44:17;102270.06;;;15.53;50.14
71601;BME280;59446;52.192;4.628;2023-01-31T05:46:43;102271.09;;;15.47;49.66
71601;BME280;59446;52.192;4.628;2023-01-31T05:49:08;102263.97;;;15.52;49.62
71601;BME280;59446;52.192;4.628;2023-01-31T05:51:34;102261.38;;;15.51;50.17
71601;BME280;59446;52.192;4.628;2023-01-31T05:53:59;102259.75;;;15.47;49.68
71601;BME280;59446;52.192;4.628;2023-01-31T05:56:24;102250.06;;;15.49;50.40
71601;BME280;59446;52.192;4.628;2023-01-31T05:58:50;102244.81;;;15.49;49.63
71601;BME280;59446;52.192;4.628;2023-01-31T06:01:21;102248.41;;;15.44;49.74
71601;BME280;59446;52.192;4.628;2023-01-31T06:03:47;102249.25;;;15.47;49.99
71601;BME280;59446;52.192;4.628;2023-01-31T06:06:14;102246.69;;;15.43;49.86
71601;BME280;59446;52.192;4.628;2023-01-31T06:08:39;102246.72;;;15.42;49.88
71601;BME280;59446;52.192;4.628;2023-01-31T06:11:07;102245.03;;;15.39;49.75
71601;BME280;59446;52.192;4.628;2023-01-31T06:13:33;102237.06;;;15.42;49.87
71601;BME280;59446;52.192;4.628;2023-01-31T06:15:59;102251.13;;;15.40;49.75
71601;BME280;59446;52.192;4.628;2023-01-31T06:18:24;102257.25;;;15.40;50.26
71601;BME280;59446;52.192;4.628;2023-01-31T06:20:51;102251.97;;;15.42;50.17
71601;BME280;59446;52.192;4.628;2023-01-31T06:23:17;102251.09;;;15.41;49.84
71601;BME280;59446;52.192;4.628;2023-01-31T06:25:43;102238.06;;;15.38;49.91
71601;BME280;59446;52.192;4.628;2023-01-31T06:28:08;102218.88;;;15.36;49.77
71601;BME280;59446;52.192;4.628;2023-01-31T06:30:34;102229.38;;;15.36;49.85
71601;BME280;59446;52.192;4.628;2023-01-31T06:33:00;102233.66;;;15.39;49.76
71601;BME280;59446;52.192;4.628;2023-01-31T06:35:26;102213.56;;;15.38;49.88
71601;BME280;59446;52.192;4.628;2023-01-31T06:37:51;102212.72;;;15.37;50.18
71601;BME280;59446;52.192;4.628;2023-01-31T06:40:17;102204.94;;;15.34;49.79
71601;BME280;59446;52.192;4.628;2023-01-31T06:42:42;102199.72;;;15.33;49.87
71601;BME280;59446;52.192;4.628;2023-01-31T06:45:08;102194.44;;;15.34;50.10
71601;BME280;59446;52.192;4.628;2023-01-31T06:47:34;102189.13;;;15.36;50.07
71601;BME280;59446;52.192;4.628;2023-01-31T06:49:59;102202.34;;;15.33;49.73
71601;BME280;59446;52.192;4.628;2023-01-31T06:52:24;102205.81;;;15.33;49.60
71601;BME280;59446;52.192;4.628;2023-01-31T06:54:50;102203.19;;;15.33;50.13
71601;BME280;59446;52.192;4.628;2023-01-31T06:57:15;102198.94;;;15.29;50.14
71601;BME280;59446;52.192;4.628;2023-01-31T06:59:41;102195.50;;;15.27;50.13
71601;BME280;59446;52.192;4.628;2023-01-31T07:02:07;102185.91;;;15.26;49.77
71601;BME280;59446;52.192;4.628;2023-01-31T07:04:33;102181.47;;;15.28;50.07
71601;BME280;59446;52.192;4.628;2023-01-31T07:06:58;102192.97;;;15.24;50.04
71601;BME280;59446;52.192;4.628;2023-01-31T07:09:24;102193.78;;;15.26;49.74
71601;BME280;59446;52.192;4.628;2023-01-31T07:11:49;102186.81;;;15.25;50.27
71601;BME280;59446;52.192;4.628;2023-01-31T07:14:14;102184.16;;;15.27;49.99
71601;BME280;59446;52.192;4.628;2023-01-31T07:16:40;102183.41;;;15.22;49.73
71601;BME280;59446;52.192;4.628;2023-01-31T07:19:05;102169.38;;;15.23;49.70
71601;BME280;59446;52.192;4.628;2023-01-31T07:21:31;102174.69;;;15.20;49.82
71601;BME280;59446;52.192;4.628;2023-01-31T07:23:57;102167.97;;;15.09;50.07
71601;BME280;59446;52.192;4.628;2023-01-31T07:26:23;102169.91;;;15.03;50.04
71601;BME280;59446;52.192;4.628;2023-01-31T07:28:48;102159.53;;;14.98;50.20
71601;BME280;59446;52.192;4.628;2023-01-31T07:31:14;102171.00;;;14.93;49.70
71601;BME280;59446;52.192;4.628;2023-01-31T07:33:40;102161.25;;;14.99;49.59
71601;BME280;59446;52.192;4.628;2023-01-31T07:36:06;102160.31;;;15.02;49.67
71601;BME280;59446;52.192;4.628;2023-01-31T07:38:33;102163.75;;;15.04;49.75
71601;BME280;59446;52.192;4.628;2023-01-31T07:40:59;102167.03;;;15.12;49.15
71601;BME280;59446;52.192;4.628;2023-01-31T07:43:26;102156.19;;;15.26;49.11
71601;BME280;59446;52.192;4.628;2023-01-31T07:45:52;102140.16;;;15.35;49.45
71601;BME280;59446;52.192;4.628;2023-01-31T07:48:18;102144.38;;;15.40;49.51
71601;BME280;59446;52.192;4.628;2023-01-31T07:50:52;102131.97;;;15.47;49.27
71601;BME280;59446;52.192;4.628;2023-01-31T07:53:19;102125.59;;;15.56;49.14
71601;BME280;59446;52.192;4.628;2023-01-31T07:55:44;102125.19;;;15.71;49.04
71601;BME280;59446;52.192;4.628;2023-01-31T07:58:15;102131.97;;;15.78;49.28
71601;BME280;59446;52.192;4.628;2023-01-31T08:00:43;102135.41;;;15.80;49.07
71601;BME280;59446;52.192;4.628;2023-01-31T08:03:29;102132.38;;;15.94;48.95
71601;BME280;59446;52.192;4.628;2023-01-31T08:06:11;102140.03;;;16.01;49.26
71601;BME280;59446;52.192;4.628;2023-01-31T08:08:38;102138.88;;;16.10;49.09
71601;BME280;59446;52.192;4.628;2023-01-31T08:11:04;102143.09;;;16.16;48.90
71601;BME280;59446;52.192;4.628;2023-01-31T08:13:31;102126.03;;;16.29;48.47
71601;BME280;59446;52.192;4.628;2023-01-31T08:15:57;102128.44;;;16.36;48.63
71601;BME280;59446;52.192;4.628;2023-01-31T08:18:22;102115.28;;;16.36;49.06
71601;BME280;59446;52.192;4.628;2023-01-31T08:20:48;102111.84;;;16.34;48.57
71601;BME280;59446;52.192;4.628;2023-01-31T08:23:13;102119.63;;;16.38;48.22
71601;BME280;59446;52.192;4.628;2023-01-31T08:25:39;102108.22;;;16.39;49.20
71601;BME280;59446;52.192;4.628;2023-01-31T08:28:04;102109.63;;;16.49;48.53
71601;BME280;59446;52.192;4.628;2023-01-31T08:30:30;102108.53;;;16.56;48.44
71601;BME280;59446;52.192;4.628;2023-01-31T08:32:55;102101.41;;;16.59;48.61
71601;BME280;59446;52.192;4.628;2023-01-31T08:35:21;102107.69;;;16.54;48.67
71601;BME280;59446;52.192;4.628;2023-01-31T08:37:47;102108.38;;;16.60;48.65
71601;BME280;59446;52.192;4.628;2023-01-31T08:40:12;102093.66;;;16.81;48.34
71601;BME280;59446;52.192;4.628;2023-01-31T08:42:38;102091.47;;;16.94;48.04
71601;BME280;59446;52.192;4.628;2023-01-31T08:45:04;102103.44;;;17.03;48.02
71601;BME280;59446;52.192;4.628;2023-01-31T08:47:31;102098.25;;;17.01;47.75
71601;BME280;59446;52.192;4.628;2023-01-31T08:49:57;102105.31;;;16.99;48.14
71601;BME280;59446;52.192;4.628;2023-01-31T08:52:22;102111.19;;;17.07;48.24
71601;BME280;59446;52.192;4.628;2023-01-31T08:54:47;102115.88;;;17.22;47.39
71601;BME280;59446;52.192;4.628;2023-01-31T08:57:13;102105.16;;;17.28;47.38
71601;BME280;59446;52.192;4.628;2023-01-31T08:59:38;102113.63;;;17.37;47.33
71601;BME280;59446;52.192;4.628;2023-01-31T09:02:03;102102.41;;;17.32;47.29
71601;BME280;59446;52.192;4.628;2023-01-31T09:04:29;102104.13;;;17.33;47.31
71601;BME280;59446;52.192;4.628;2023-01-31T09:06:54;102095.88;;;17.42;47.15
71601;BME280;59446;52.192;4.628;2023-01-31T09:09:20;102092.91;;;17.51;47.20
71601;BME280;59446;52.192;4.628;2023-01-31T09:11:45;102087.56;;;17.54;46.92
71601;BME280;59446;52.192;4.628;2023-01-31T09:14:11;102083.25;;;17.51;47.05
71601;BME280;59446;52.192;4.628;2023-01-31T09:16:36;102067.88;;;17.39;47.17
71601;BME280;59446;52.192;4.628;2023-01-31T09:19:02;102074.00;;;17.40;46.82
71601;BME280;59446;52.192;4.628;2023-01-31T09:21:27;102063.28;;;17.44;47.16
71601;BME280;59446;52.192;4.628;2023-01-31T09:23:58;102065.25;;;17.39;47.56
71601;BME280;59446;52.192;4.628;2023-01-31T09:26:23;102080.25;;;17.37;47.68
71601;BME280;59446;52.192;4.628;2023-01-31T09:28:49;102070.75;;;17.33;47.43
71601;BME280;59446;52.192;4.628;2023-01-31T09:31:16;102076.00;;;17.33;47.79
71601;BME280;59446;52.192;4.628;2023-01-31T09:33:43;102064.66;;;17.56;47.28
71601;BME280;59446;52.192;4.628;2023-01-31T09:36:17;102054.34;;;17.73;47.44
71601;BME280;59446;52.192;4.628;2023-01-31T09:38:43;102067.81;;;17.87;46.88
71601;BME280;59446;52.192;4.628;2023-01-31T09:41:25;102058.38;;;18.04;46.38
71601;BME280;59446;52.192;4.628;2023-01-31T09:43:56;102051.78;;;18.36;45.37
71601;BME280;59446;52.192;4.628;2023-01-31T09:46:25;102056.34;;;18.32;45.32
71601;BME280;59446;52.192;4.628;2023-01-31T09:48:53;102050.13;;;18.55;45.14
71601;BME280;59446;52.192;4.628;2023-01-31T09:51:20;102056.09;;;18.60;45.15
71601;BME280;59446;52.192;4.628;2023-01-31T09:53:46;102070.00;;;18.64;44.72
71601;BME280;59446;52.192;4.628;2023-01-31T09:56:27;102068.88;;;18.90;44.42
71601;BME280;59446;52.192;4.628;2023-01-31T09:59:20;102067.53;;;19.00;44.33
71601;BME280;59446;52.192;4.628;2023-01-31T10:05:05;102064.97;;;18.98;44.17
71601;BME280;59446;52.192;4.628;2023-01-31T10:08:12;102074.72;;;19.17;44.05
71601;BME280;59446;52.192;4.628;2023-01-31T10:10:47;102074.22;;;19.29;44.01
71601;BME280;59446;52.192;4.628;2023-01-31T10:13:26;102069.13;;;19.24;43.91
71601;BME280;59446;52.192;4.628;2023-01-31T10:16:08;102068.88;;;19.30;43.65
71601;BME280;59446;52.192;4.628;2023-01-31T10:18:42;102075.50;;;19.39;43.76
71601;BME280;59446;52.192;4.628;2023-01-31T10:21:15;102075.66;;;19.55;43.54
71601;BME280;59446;52.192;4.628;2023-01-31T10:24:16;102069.00;;;19.46;43.57
71601;BME280;59446;52.192;4.628;2023-01-31T10:26:44;102075.75;;;19.53;43.81
71601;BME280;59446;52.192;4.628;2023-01-31T10:29:22;102058.59;;;19.62;43.00
71601;BME280;59446;52.192;4.628;2023-01-31T10:31:57;102054.09;;;19.64;43.04
71601;BME280;59446;52.192;4.628;2023-01-31T10:34:39;102059.16;;;19.68;43.06
71601;BME280;59446;52.192;4.628;2023-01-31T10:39:49;102046.22;;;19.81;42.73
71601;BME280;59446;52.192;4.628;2023-01-31T10:42:33;102060.00;;;19.88;42.75
71601;BME280;59446;52.192;4.628;2023-01-31T10:45:15;102052.22;;;19.85;42.59
71601;BME280;59446;52.192;4.628;2023-01-31T10:47:48;102063.72;;;19.84;42.93
71601;BME280;59446;52.192;4.628;2023-01-31T10:58:37;102066.34;;;19.84;43.04
71601;BME280;59446;52.192;4.628;2023-01-31T11:01:06;102073.06;;;19.91;42.52
71601;BME280;59446;52.192;4.628;2023-01-31T11:03:36;102068.28;;;19.99;42.59
71601;BME280;59446;52.192;4.628;2023-01-31T11:06:01;102068.63;;;19.91;42.70
71601;BME280;59446;52.192;4.628;2023-01-31T11:11:12;102073.44;;;19.83;42.67
71601;BME280;59446;52.192;4.628;2023-01-31T11:13:38;102073.72;;;19.77;42.96
71601;BME280;59446;52.192;4.628;2023-01-31T11:16:07;102077.41;;;19.92;42.89
71601;BME280;59446;52.192;4.628;2023-01-31T11:18:46;102073.50;;;19.82;42.71
71601;BME280;59446;52.192;4.628;2023-01-31T11:21:29;102073.44;;;19.83;43.01
71601;BME280;59446;52.192;4.628;2023-01-31T11:24:02;102056.94;;;19.78;43.08
71601;BME280;59446;52.192;4.628;2023-01-31T11:26:32;102056.00;;;19.98;42.41
71601;BME280;59446;52.192;4.628;2023-01-31T11:28:59;102057.84;;;19.96;42.82
71601;BME280;59446;52.192;4.628;2023-01-31T11:31:32;102071.50;;;19.87;43.24
71601;BME280;59446;52.192;4.628;2023-01-31T11:34:03;102067.00;;;19.89;43.20
71601;BME280;59446;52.192;4.628;2023-01-31T11:36:40;102061.91;;;20.03;42.78
71601;BME280;59446;52.192;4.628;2023-01-31T11:41:51;102067.94;;;20.07;42.82
71601;BME280;59446;52.192;4.628;2023-01-31T11:44:18;102067.69;;;20.11;43.02
71601;BME280;59446;52.192;4.628;2023-01-31T11:46:51;102048.13;;;19.96;43.12
71601;BME280;59446;52.192;4.628;2023-01-31T11:49:35;102052.56;;;19.96;43.28
71601;BME280;59446;52.192;4.628;2023-01-31T11:52:11;102046.84;;;19.86;43.48
71601;BME280;59446;52.192;4.628;2023-01-31T11:54:39;102048.94;;;19.61;44.06
71601;BME280;59446;52.192;4.628;2023-01-31T11:57:15;102043.28;;;19.50;44.71
71601;BME280;59446;52.192;4.628;2023-01-31T11:59:41;102036.09;;;19.34;45.19
71601;BME280;59446;52.192;4.628;2023-01-31T12:02:29;102033.22;;;19.39;44.73
71601;BME280;59446;52.192;4.628;2023-01-31T12:04:55;102022.03;;;19.53;44.60
71601;BME280;59446;52.192;4.628;2023-01-31T12:07:23;102033.72;;;19.47;44.51
71601;BME280;59446;52.192;4.628;2023-01-31T12:09:49;102021.75;;;19.40;44.58
71601;BME280;59446;52.192;4.628;2023-01-31T12:12:29;102010.09;;;19.44;44.53
71601;BME280;59446;52.192;4.628;2023-01-31T12:15:04;102020.25;;;19.53;44.33
71601;BME280;59446;52.192;4.628;2023-01-31T12:17:45;102008.97;;;19.86;43.42
71601;BME280;59446;52.192;4.628;2023-01-31T12:20:21;102003.88;;;20.00;42.97
71601;BME280;59446;52.192;4.628;2023-01-31T12:31:57;102008.44;;;20.15;42.93
71601;BME280;59446;52.192;4.628;2023-01-31T12:34:54;102001.69;;;19.91;43.76
71601;BME280;59446;52.192;4.628;2023-01-31T12:37:32;101999.25;;;19.86;44.20
71601;BME280;59446;52.192;4.628;2023-01-31T12:40:42;102009.38;;;19.59;44.50
71601;BME280;59446;52.192;4.628;2023-01-31T12:48:46;101992.13;;;19.52;44.92
71601;BME280;59446;52.192;4.628;2023-01-31T12:51:38;101986.31;;;19.44;44.79
71601;BME280;59446;52.192;4.628;2023-01-31T12:54:24;101992.91;;;19.54;44.76
71601;BME280;59446;52.192;4.628;2023-01-31T13:00:05;101970.06;;;19.53;44.79
71601;BME280;59446;52.192;4.628;2023-01-31T13:08:17;101984.47;;;19.46;44.98
71601;BME280;59446;52.192;4.628;2023-01-31T13:10:49;101980.25;;;19.42;45.06
71601;BME280;59446;52.192;4.628;2023-01-31T13:13:24;101985.69;;;19.39;45.03
71601;BME280;59446;52.192;4.628;2023-01-31T13:15:57;101989.09;;;19.41;45.05
71601;BME280;59446;52.192;4.628;2023-01-31T13:18:26;102002.69;;;19.52;45.28
71601;BME280;59446;52.192;4.628;2023-01-31T13:20:58;101994.69;;;19.54;44.88
71601;BME280;59446;52.192;4.628;2023-01-31T13:23:31;101988.53;;;19.53;45.02
71601;BME280;59446;52.192;4.628;2023-01-31T13:26:08;101990.66;;;19.45;45.08
71601;BME280;59446;52.192;4.628;2023-01-31T13:28:41;101992.75;;;19.38;45.31
71601;BME280;59446;52.192;4.628;2023-01-31T13:31:16;101993.38;;;19.44;44.81
71601;BME280;59446;52.192;4.628;2023-01-31T13:34:18;101994.84;;;19.32;45.14
71601;BME280;59446;52.192;4.628;2023-01-31T13:37:05;101999.81;;;19.38;45.19
71601;BME280;59446;52.192;4.628;2023-01-31T13:39:54;101996.75;;;19.47;44.84
71601;BME280;59446;52.192;4.628;2023-01-31T13:42:21;101990.13;;;19.38;44.98
71601;BME280;59446;52.192;4.628;2023-01-31T13:44:47;101990.81;;;19.42;45.31
71601;BME280;59446;52.192;4.628;2023-01-31T13:47:22;102003.63;;;19.51;45.02
71601;BME280;59446;52.192;4.628;2023-01-31T13:50:08;102015.22;;;19.47;45.06
71601;BME280;59446;52.192;4.628;2023-01-31T13:52:44;102017.69;;;19.52;44.69
71601;BME280;59446;52.192;4.628;2023-01-31T13:55:21;102030.31;;;19.45;44.99
71601;BME280;59446;52.192;4.628;2023-01-31T13:57:54;102030.97;;;19.50;45.29
71601;BME280;59446;52.192;4.628;2023-01-31T14:00:41;102040.59;;;19.51;44.96
71601;BME280;59446;52.192;4.628;2023-01-31T14:03:09;102034.47;;;19.51;45.22
71601;BME280;59446;52.192;4.628;2023-01-31T14:05:57;102033.59;;;19.50;45.26
71601;BME280;59446;52.192;4.628;2023-01-31T14:10:51;102049.31;;;19.53;44.92
71601;BME280;59446;52.192;4.628;2023-01-31T14:15:53;102051.09;;;19.53;44.96
71601;BME280;59446;52.192;4.628;2023-01-31T14:18:36;102057.31;;;19.52;45.21
71601;BME280;59446;52.192;4.628;2023-01-31T14:23:48;102058.44;;;19.46;45.28
71601;BME280;59446;52.192;4.628;2023-01-31T14:31:42;102061.50;;;19.37;45.21